createdAt,value
2023-02-04T00:05:05.537Z,23.95
2023-02-04T00:10:20.648Z,22.98
2023-02-04T00:15:35.586Z,21.92
2023-02-04T00:20:50.628Z,22.27
2023-02-04T00:26:05.572Z,20.48
2023-02-04T00:31:20.908Z,19.35
2023-02-04T00:36:36.511Z,18.60
2023-02-04T00:41:52.567Z,19.25
2023-02-04T00:47:07.595Z,19.17
2023-02-04T00:52:22.574Z,18.13
2023-02-04T00:57:37.533Z,18.45
2023-02-04T01:02:52.921Z,19.25
2023-02-04T01:08:08.535Z,17.65
2023-02-04T01:13:23.880Z,18.63
2023-02-04T01:18:39.516Z,16.60
2023-02-04T01:23:54.622Z,17.45
2023-02-04T01:29:09.662Z,17.25
2023-02-04T01:34:25.580Z,17.20
2023-02-04T01:39:40.562Z,16.10
2023-02-04T01:44:55.915Z,15.27
2023-02-04T01:50:11.559Z,17.23
2023-02-04T01:55:26.517Z,15.45
2023-02-04T02:00:41.943Z,14.13
2023-02-04T02:05:57.561Z,16.60
2023-02-04T02:11:12.526Z,14.38
2023-02-04T02:16:28.058Z,14.00
2023-02-04T02:21:44.833Z,12.40
2023-02-04T02:27:00.608Z,12.25
2023-02-04T02:32:15.575Z,12.88
2023-02-04T02:37:30.937Z,12.57
2023-02-04T02:42:47.299Z,12.48
2023-02-04T02:48:02.552Z,12.73
2023-02-04T02:53:17.554Z,11.02
2023-02-04T02:58:32.587Z,12.63
2023-02-04T03:03:48.548Z,11.45
2023-02-04T03:09:03.570Z,9.98
2023-02-04T03:14:19.608Z,10.38
2023-02-04T03:19:35.523Z,9.48
2023-02-04T03:24:50.298Z,9.73
2023-02-04T03:30:05.582Z,10.10
2023-02-04T03:35:20.517Z,9.35
2023-02-04T03:40:35.565Z,10.27
2023-02-04T03:45:50.536Z,10.15
2023-02-04T03:51:05.534Z,9.35
2023-02-04T03:56:20.590Z,9.55
2023-02-04T04:01:35.546Z,9.48
2023-02-04T04:06:50.531Z,9.35
2023-02-04T04:12:05.587Z,9.07
2023-02-04T04:17:20.871Z,8.55
2023-02-04T04:22:36.565Z,9.02
2023-02-04T04:27:51.550Z,9.20
2023-02-04T04:33:06.584Z,8.18
2023-02-04T04:38:21.594Z,7.90
2023-02-04T04:43:36.538Z,8.25
2023-02-04T04:48:51.551Z,7.85
2023-02-04T04:54:06.897Z,7.82
2023-02-04T04:59:22.855Z,8.27
2023-02-04T05:04:38.598Z,7.03
2023-02-04T05:09:53.596Z,7.70
2023-02-04T05:15:08.314Z,6.85
2023-02-04T05:20:23.772Z,7.00
2023-02-04T05:25:39.887Z,8.13
2023-02-04T05:30:55.597Z,6.43
2023-02-04T05:36:10.548Z,6.47
2023-02-04T05:41:25.589Z,6.68
2023-02-04T05:46:40.558Z,6.68
2023-02-04T05:51:55.313Z,6.00
2023-02-04T05:57:10.549Z,6.10
2023-02-04T06:02:25.580Z,6.18
2023-02-04T06:07:40.609Z,6.50
2023-02-04T06:12:55.676Z,5.85
2023-02-04T06:18:10.900Z,6.25
2023-02-04T06:23:26.613Z,6.05
2023-02-04T06:28:41.622Z,6.72
2023-02-04T06:33:56.583Z,6.13
2023-02-04T06:39:11.848Z,5.88
2023-02-04T06:44:27.570Z,5.30
2023-02-04T06:49:42.535Z,5.72
2023-02-04T06:54:57.561Z,5.65
2023-02-04T07:00:12.575Z,5.03
2023-02-04T07:05:27.570Z,4.80
2023-02-04T07:10:42.557Z,4.85
2023-02-04T07:15:57.644Z,21.58
2023-02-04T07:21:12.661Z,26.45
2023-02-04T07:26:28.589Z,34.00
2023-02-04T07:31:43.787Z,34.72
2023-02-04T07:36:58.679Z,34.58
2023-02-04T07:42:13.543Z,33.60
2023-02-04T07:47:35.541Z,31.55
2023-02-04T07:52:50.549Z,27.63
2023-02-04T07:58:05.535Z,28.85
2023-02-04T08:03:20.644Z,30.48
2023-02-04T08:08:35.597Z,31.48
2023-02-04T08:13:51.637Z,31.48
2023-02-04T08:19:06.657Z,31.10
2023-02-04T08:24:21.600Z,29.40
2023-02-04T08:29:36.573Z,28.77
2023-02-04T08:34:51.572Z,28.08
2023-02-04T08:40:06.558Z,26.02
2023-02-04T08:45:21.752Z,25.83
2023-02-04T08:50:39.080Z,25.38
2023-02-04T08:55:54.346Z,24.23
2023-02-04T09:01:10.985Z,24.15
2023-02-04T09:06:26.541Z,23.98
2023-02-04T09:11:41.599Z,22.92
2023-02-04T09:16:56.568Z,21.30
2023-02-04T09:22:11.953Z,22.55
2023-02-04T09:27:27.435Z,18.23
2023-02-04T09:32:42.961Z,19.25
2023-02-04T09:37:58.573Z,17.50
2023-02-04T09:43:13.628Z,15.95
2023-02-04T09:48:28.645Z,16.27
2023-02-04T09:53:43.950Z,17.02
2023-02-04T09:58:59.692Z,16.42
2023-02-04T10:04:14.607Z,13.70
2023-02-04T10:09:29.603Z,14.07
2023-02-04T10:14:44.631Z,13.57
2023-02-04T10:19:59.622Z,12.98
2023-02-04T10:25:14.680Z,13.65
2023-02-04T10:30:29.869Z,11.63
2023-02-04T10:35:45.621Z,11.45
2023-02-04T10:41:00.568Z,12.27
2023-02-04T10:46:15.396Z,11.07
2023-02-04T10:51:30.621Z,11.88
2023-02-04T10:56:45.898Z,10.60
2023-02-04T11:02:01.616Z,10.60
2023-02-04T11:07:16.627Z,11.02
2023-02-04T11:12:31.935Z,10.25
2023-02-04T11:17:47.575Z,9.40
2023-02-04T11:23:02.595Z,8.45
2023-02-04T11:28:17.673Z,9.07
2023-02-04T11:33:32.397Z,9.20
2023-02-04T11:38:47.367Z,9.25
2023-02-04T11:44:02.655Z,9.02
2023-02-04T11:49:17.618Z,7.88
2023-02-04T11:54:32.554Z,8.95
2023-02-04T11:59:47.599Z,8.50
2023-02-04T12:05:02.714Z,7.80
2023-02-04T12:10:17.693Z,7.53
2023-02-04T12:15:32.699Z,6.93
2023-02-04T12:20:48.911Z,7.63
2023-02-04T12:26:04.615Z,6.93
2023-02-04T12:31:19.739Z,6.68
2023-02-04T12:36:34.579Z,6.82
2023-02-04T12:41:49.410Z,7.10
2023-02-04T12:47:04.636Z,6.63
2023-02-04T12:52:19.620Z,6.03
2023-02-04T12:57:34.924Z,6.60
2023-02-04T13:02:51.059Z,6.30
2023-02-04T13:08:06.592Z,5.60
2023-02-04T13:13:21.557Z,6.53
2023-02-04T13:18:36.335Z,5.45
2023-02-04T13:23:51.904Z,5.00
2023-02-04T13:29:07.957Z,5.45
2023-02-04T13:34:23.603Z,6.82
2023-02-04T13:39:38.612Z,5.63
2023-02-04T13:44:53.968Z,5.18
2023-02-04T13:50:09.707Z,6.13
2023-02-04T13:55:25.015Z,5.07
2023-02-04T14:00:40.973Z,5.15
2023-02-04T14:05:56.596Z,4.55
2023-02-04T14:11:11.622Z,4.68
2023-02-04T14:16:26.615Z,4.82
2023-02-04T14:21:41.684Z,4.65
2023-02-04T14:27:34.676Z,4.28
2023-02-04T14:32:49.619Z,4.68
2023-02-04T14:38:04.380Z,5.25
2023-02-04T14:43:19.607Z,4.72
2023-02-04T14:48:34.359Z,4.63
2023-02-04T14:53:49.614Z,5.97
2023-02-04T14:59:04.553Z,5.22
2023-02-04T15:04:19.658Z,4.65
2023-02-04T15:09:34.565Z,4.90
2023-02-04T15:14:49.957Z,4.47
2023-02-04T15:20:05.598Z,5.70
2023-02-04T15:25:20.349Z,5.28
2023-02-04T15:30:35.996Z,4.95
2023-02-04T15:35:51.998Z,4.00
2023-02-04T15:41:07.907Z,4.07
2023-02-04T15:46:23.754Z,3.95
2023-02-04T15:51:38.688Z,4.55
2023-02-04T15:56:53.352Z,3.90
2023-02-04T16:02:08.363Z,4.53
2023-02-04T16:07:23.661Z,4.90
2023-02-04T16:12:39.084Z,4.30
2023-02-04T16:17:54.681Z,5.05
2023-02-04T16:23:09.583Z,3.65
2023-02-04T16:28:25.368Z,4.50
2023-02-04T16:33:40.646Z,4.85
2023-02-04T16:38:55.592Z,4.72
2023-02-04T16:44:10.622Z,4.15
2023-02-04T16:49:25.566Z,3.67
2023-02-04T16:54:40.641Z,3.97
2023-02-04T16:59:55.861Z,3.83
2023-02-04T17:05:11.654Z,4.35
2023-02-04T17:10:26.646Z,4.57
2023-02-04T17:15:41.946Z,3.75
2023-02-04T17:20:58.016Z,3.83
2023-02-04T17:26:13.605Z,4.22
2023-02-04T17:31:28.675Z,4.05
2023-02-04T17:36:43.596Z,3.50
2023-02-04T17:41:58.567Z,3.55
2023-02-04T17:47:13.637Z,4.95
2023-02-04T17:52:28.603Z,4.53
2023-02-04T17:57:43.642Z,3.95
2023-02-04T18:02:58.960Z,4.15
2023-02-04T18:08:14.663Z,4.30
2023-02-04T18:13:29.628Z,4.60
2023-02-04T18:18:44.649Z,4.72
2023-02-04T18:24:01.188Z,4.88
2023-02-04T18:29:16.723Z,5.63
2023-02-04T18:34:31.658Z,4.53
2023-02-04T18:39:46.662Z,4.70
2023-02-04T18:45:01.599Z,4.53
2023-02-04T18:50:16.668Z,4.70
2023-02-04T18:55:32.637Z,5.10
2023-02-04T19:00:47.671Z,6.38
2023-02-04T19:06:02.649Z,6.57
2023-02-04T19:11:17.700Z,6.47
2023-02-04T19:16:32.687Z,6.53
2023-02-04T19:21:47.925Z,7.07
2023-02-04T19:27:03.630Z,6.57
2023-02-04T19:32:18.605Z,8.15
2023-02-04T19:37:33.896Z,7.75
2023-02-04T19:42:50.080Z,7.10
2023-02-04T19:48:05.636Z,7.35
2023-02-04T19:53:20.708Z,8.05
2023-02-04T19:58:36.612Z,8.50
2023-02-04T20:03:51.644Z,7.03
2023-02-04T20:09:06.620Z,6.22
2023-02-04T20:14:21.597Z,7.43
2023-02-04T20:19:36.748Z,6.40
2023-02-04T20:24:51.656Z,6.00
2023-02-04T20:30:06.580Z,6.50
2023-02-04T20:35:21.646Z,6.93
2023-02-04T20:40:36.413Z,7.15
2023-02-04T20:45:51.748Z,6.68
2023-02-04T20:51:08.108Z,6.93
2023-02-04T20:56:23.641Z,5.57
2023-02-04T21:01:38.788Z,5.38
2023-02-04T21:06:53.674Z,6.25
2023-02-04T21:12:08.696Z,6.38
2023-02-04T21:17:23.684Z,5.95
2023-02-04T21:22:38.923Z,6.03
2023-02-04T21:27:54.731Z,5.93
2023-02-04T21:33:09.631Z,7.07
2023-02-04T21:38:25.059Z,5.60
2023-02-04T21:43:40.641Z,5.43
2023-02-04T21:48:56.087Z,5.20
2023-02-04T21:54:11.606Z,6.05
2023-02-04T21:59:26.396Z,5.05
2023-02-04T22:04:41.675Z,5.25
2023-02-04T22:09:56.617Z,5.93
2023-02-04T22:15:11.615Z,6.30
2023-02-04T22:20:26.616Z,4.80
2023-02-04T22:25:41.644Z,5.05
2023-02-04T22:30:57.061Z,5.25
2023-02-04T22:36:12.654Z,5.25
2023-02-04T22:41:27.370Z,4.97
2023-02-04T22:46:42.698Z,4.43
2023-02-04T22:51:57.690Z,6.00
2023-02-04T22:57:12.632Z,4.40
2023-02-04T23:02:27.642Z,5.78
2023-02-04T23:07:42.964Z,4.95
2023-02-04T23:12:58.673Z,5.70
2023-02-04T23:18:13.697Z,5.32
2023-02-04T23:23:28.654Z,4.95
2023-02-04T23:28:43.613Z,4.68
2023-02-04T23:33:58.613Z,5.13
2023-02-04T23:39:13.662Z,4.55
2023-02-04T23:44:29.016Z,4.25
2023-02-04T23:49:44.935Z,5.13
2023-02-04T23:55:00.711Z,5.43
